createdAt,value
2022-08-05T00:00:17.746Z,99337.53
2022-08-05T00:02:51.584Z,99327.19
2022-08-05T00:06:02.039Z,99340.91
2022-08-05T00:08:32.912Z,99344.16
2022-08-05T00:11:00.746Z,99348.53
2022-08-05T00:13:39.237Z,99351.78
2022-08-05T00:16:13.736Z,99359.72
2022-08-05T00:18:48.413Z,99356.00
2022-08-05T00:21:18.922Z,99356.66
2022-08-05T00:24:05.066Z,99344.53
2022-08-05T00:26:35.450Z,99353.75
2022-08-05T00:29:02.515Z,99349.38
2022-08-05T00:31:53.084Z,99345.16
2022-08-05T00:34:54.967Z,99348.06
2022-08-05T00:37:11.392Z,99362.78
2022-08-05T00:39:57.163Z,99359.84
2022-08-05T00:42:37.357Z,99358.34
2022-08-05T00:45:08.768Z,99359.66
2022-08-05T00:47:57.187Z,99364.16
2022-08-05T00:50:26.020Z,99357.38
2022-08-05T00:52:53.578Z,99360.38
2022-08-05T00:55:23.422Z,99359.38
2022-08-05T00:58:11.555Z,99357.09
2022-08-05T01:00:39.649Z,99362.56
2022-08-05T01:03:07.617Z,99364.19
2022-08-05T01:05:35.305Z,99356.28
2022-08-05T01:08:41.774Z,99351.59
2022-08-05T01:10:59.503Z,99343.16
2022-08-05T01:13:57.358Z,99342.81
2022-08-05T01:16:57.091Z,99327.28
2022-08-05T01:20:01.022Z,99319.44
2022-08-05T01:23:23.393Z,99330.28
2022-08-05T01:26:32.507Z,99319.47
2022-08-05T01:29:10.994Z,99310.09
2022-08-05T01:31:49.720Z,99311.69
2022-08-05T01:34:42.867Z,99303.81
2022-08-05T01:37:30.250Z,99287.56
2022-08-05T01:40:02.585Z,99293.88
2022-08-05T01:42:31.289Z,99294.97
2022-08-05T01:45:02.326Z,99304.34
2022-08-05T01:47:39.719Z,99313.69
2022-08-05T01:50:17.703Z,99324.34
2022-08-05T01:52:50.087Z,99329.53
2022-08-05T01:55:22.307Z,99319.84
2022-08-05T01:58:12.974Z,99328.75
2022-08-05T02:00:45.443Z,99340.72
2022-08-05T02:03:28.884Z,99337.31
2022-08-05T02:06:03.604Z,99337.31
2022-08-05T02:08:58.294Z,99331.84
2022-08-05T02:11:33.503Z,99335.22
2022-08-05T02:14:12.750Z,99320.38
2022-08-05T02:17:00.104Z,99331.69
2022-08-05T02:19:27.455Z,99326.50
2022-08-05T02:22:26.604Z,99329.88
2022-08-05T02:25:08.537Z,99319.84
2022-08-05T02:27:58.389Z,99342.28
2022-08-05T02:30:35.188Z,99355.69
2022-08-05T02:33:04.744Z,99361.78
2022-08-05T02:35:37.822Z,99367.06
2022-08-05T02:38:12.453Z,99365.78
2022-08-05T02:40:47.599Z,99373.50
2022-08-05T02:43:16.844Z,99386.38
2022-08-05T02:45:52.912Z,99396.56
2022-08-05T02:48:29.022Z,99404.91
2022-08-05T02:51:02.604Z,99391.34
2022-08-05T02:53:39.312Z,99380.25
2022-08-05T02:56:15.942Z,99375.44
2022-08-05T02:58:51.293Z,99378.72
2022-08-05T03:01:25.029Z,99387.03
2022-08-05T03:04:02.934Z,99387.03
2022-08-05T03:06:56.735Z,99401.88
2022-08-05T03:09:36.039Z,99411.38
2022-08-05T03:12:06.248Z,99408.16
2022-08-05T03:14:35.373Z,99396.19
2022-08-05T03:17:12.865Z,99392.66
2022-08-05T03:19:39.809Z,99392.53
2022-08-05T03:22:16.277Z,99392.53
2022-08-05T03:24:49.590Z,99375.31
2022-08-05T03:27:19.650Z,99376.72
2022-08-05T03:30:07.250Z,99367.41
2022-08-05T03:32:34.798Z,99358.06
2022-08-05T03:35:06.146Z,99357.25
2022-08-05T03:37:45.961Z,99344.97
2022-08-05T03:40:14.665Z,99348.56
2022-08-05T03:42:51.944Z,99367.63
2022-08-05T03:45:21.626Z,99413.88
2022-08-05T03:47:49.423Z,99445.13
2022-08-05T03:50:16.442Z,99478.78
2022-08-05T03:55:51.627Z,99498.56
2022-08-05T03:56:17.201Z,99522.41
2022-08-05T03:58:53.446Z,99505.28
2022-08-05T04:01:22.794Z,99482.03
2022-08-05T04:04:09.196Z,99487.50
2022-08-05T04:06:38.364Z,99486.22
2022-08-05T04:09:20.223Z,99508.09
2022-08-05T04:11:53.455Z,99533.06
2022-08-05T04:14:29.949Z,99514.31
2022-08-05T04:16:59.994Z,99482.44
2022-08-05T04:19:29.578Z,99504.97
2022-08-05T04:22:10.163Z,99527.19
2022-08-05T04:24:52.978Z,99548.47
2022-08-05T04:27:33.320Z,99545.56
2022-08-05T04:30:09.460Z,99556.25
2022-08-05T04:32:36.870Z,99560.88
2022-08-05T04:35:05.857Z,99566.56
2022-08-05T04:38:01.232Z,99567.78
2022-08-05T04:40:20.368Z,99584.88
2022-08-05T04:42:47.364Z,99588.53
2022-08-05T04:45:31.140Z,99596.59
2022-08-05T04:48:16.313Z,99598.31
2022-08-05T04:51:03.698Z,99604.69
2022-08-05T04:53:36.136Z,99614.31
2022-08-05T04:56:33.983Z,99621.72
2022-08-05T04:58:56.648Z,99633.53
2022-08-05T05:02:06.396Z,99650.19
2022-08-05T05:04:10.872Z,99657.63
2022-08-05T05:06:44.287Z,99656.31
2022-08-05T05:09:17.312Z,99665.91
2022-08-05T05:11:55.616Z,99662.38
2022-08-05T05:14:27.691Z,99674.13
2022-08-05T05:17:03.329Z,99677.13
2022-08-05T05:19:37.249Z,99679.63
2022-08-05T05:22:23.796Z,99689.44
2022-08-05T05:24:58.536Z,99688.91
2022-08-05T05:27:44.969Z,99680.22
2022-08-05T05:30:30.802Z,99663.56
2022-08-05T05:33:03.492Z,99677.47
2022-08-05T05:35:39.579Z,99679.09
2022-08-05T05:38:13.726Z,99663.84
2022-08-05T05:40:49.492Z,99651.88
2022-08-05T05:43:27.614Z,99655.69
2022-08-05T05:46:12.248Z,99662.75
2022-08-05T05:48:44.464Z,99671.75
2022-08-05T05:51:15.549Z,99669.25
2022-08-05T05:53:57.921Z,99682.84
2022-08-05T05:56:33.110Z,99677.91
2022-08-05T05:59:07.723Z,99676.22
2022-08-05T06:01:53.854Z,99677.53
2022-08-05T06:04:25.079Z,99682.41
2022-08-05T06:06:52.211Z,99691.91
2022-08-05T06:09:25.703Z,99685.31
2022-08-05T06:12:02.907Z,99684.22
2022-08-05T06:14:34.881Z,99681.19
2022-08-05T06:17:22.109Z,99667.25
2022-08-05T06:19:57.150Z,99667.25
2022-08-05T06:22:34.031Z,99673.22
2022-08-05T06:25:24.233Z,99664.25
2022-08-05T06:28:10.410Z,99657.44
2022-08-05T06:30:39.191Z,99661.28
2022-08-05T06:33:09.956Z,99648.25
2022-08-05T06:36:05.677Z,99644.16
2022-08-05T06:38:36.283Z,99667.34
2022-08-05T06:41:05.494Z,99669.50
2022-08-05T06:43:58.298Z,99683.09
2022-08-05T06:46:23.944Z,99669.97
2022-08-05T06:48:59.736Z,99677.03
2022-08-05T06:51:29.553Z,99668.22
2022-08-05T06:54:02.923Z,99662.44
2022-08-05T06:56:34.380Z,99667.56
2022-08-05T06:59:03.181Z,99679.56
2022-08-05T07:01:32.650Z,99689.03
2022-08-05T07:04:03.291Z,99676.97
2022-08-05T07:06:30.465Z,99675.56
2022-08-05T07:09:04.155Z,99681.50
2022-08-05T07:11:41.263Z,99686.94
2022-08-05T07:14:30.283Z,99690.38
2022-08-05T07:17:59.724Z,99693.72
2022-08-05T07:22:42.043Z,99707.88
2022-08-05T07:25:22.870Z,99713.19
2022-08-05T07:28:05.361Z,99708.44
2022-08-05T07:30:38.752Z,99716.75
2022-08-05T07:33:15.910Z,99713.91
2022-08-05T07:36:04.400Z,99723.97
2022-08-05T07:38:42.779Z,99725.22
2022-08-05T07:42:08.710Z,99736.75
2022-08-05T07:44:18.750Z,99735.59
2022-08-05T07:46:49.628Z,99737.44
2022-08-05T07:49:18.663Z,99736.88
2022-08-05T07:51:53.452Z,99737.31
2022-08-05T07:54:31.391Z,99720.16
2022-08-05T07:57:17.891Z,99724.53
2022-08-05T07:59:49.507Z,99727.72
2022-08-05T08:02:17.998Z,99726.53
2022-08-05T08:04:49.604Z,99726.38
2022-08-05T08:07:22.396Z,99726.06
2022-08-05T08:09:54.980Z,99725.78
2022-08-05T08:12:37.143Z,99720.13
2022-08-05T08:15:15.456Z,99713.44
2022-08-05T08:17:49.921Z,99737.41
2022-08-05T08:21:00.666Z,99743.91
2022-08-05T08:24:03.224Z,99741.09
2022-08-05T08:26:00.740Z,99723.53
2022-08-05T08:28:36.293Z,99725.66
2022-08-05T08:31:10.026Z,99716.88
2022-08-05T08:33:42.183Z,99715.75
2022-08-05T08:36:38.898Z,99697.38
2022-08-05T08:38:58.237Z,99676.22
2022-08-05T08:41:50.697Z,99665.66
2022-08-05T08:45:20.709Z,99654.31
2022-08-05T08:47:47.576Z,99627.63
2022-08-05T08:50:14.636Z,99629.53
2022-08-05T08:52:53.858Z,99622.50
2022-08-05T08:56:03.077Z,99624.44
2022-08-05T08:58:13.191Z,99614.78
2022-08-05T09:00:42.644Z,99601.50
2022-08-05T09:03:11.619Z,99605.38
2022-08-05T09:06:09.071Z,99598.75
2022-08-05T09:08:26.586Z,99603.00
2022-08-05T09:10:54.575Z,99606.78
2022-08-05T09:13:23.610Z,99608.06
2022-08-05T09:15:52.272Z,99612.66
2022-08-05T09:18:19.906Z,99620.75
2022-08-05T09:20:47.094Z,99625.66
2022-08-05T09:23:21.569Z,99625.53
2022-08-05T09:26:05.818Z,99648.19
2022-08-05T09:28:36.769Z,99646.84
2022-08-05T09:31:43.805Z,99644.59
2022-08-05T09:34:11.626Z,99646.75
2022-08-05T09:36:59.741Z,99651.09
2022-08-05T09:39:41.649Z,99663.09
2022-08-05T09:42:24.177Z,99663.59
2022-08-05T09:44:57.400Z,99672.31
2022-08-05T09:47:35.184Z,99670.56
2022-08-05T09:50:37.780Z,99668.00
2022-08-05T09:53:05.950Z,99665.47
2022-08-05T09:55:57.571Z,99666.91
2022-08-05T09:58:24.828Z,99658.91
2022-08-05T10:01:15.133Z,99661.09
2022-08-05T10:04:01.979Z,99650.47
2022-08-05T10:06:32.099Z,99652.78
2022-08-05T10:09:27.509Z,99659.31
2022-08-05T10:12:30.629Z,99662.13
2022-08-05T10:15:34.309Z,99663.47
2022-08-05T10:18:14.602Z,99656.06
2022-08-05T10:21:00.051Z,99647.22
2022-08-05T10:23:59.467Z,99658.56
2022-08-05T10:26:31.724Z,99667.00
2022-08-05T10:29:12.795Z,99659.91
2022-08-05T10:32:53.045Z,99659.47
2022-08-05T10:34:30.033Z,99661.72
2022-08-05T10:36:59.207Z,99661.28
2022-08-05T10:40:03.447Z,99663.88
2022-08-05T10:42:33.837Z,99662.84
2022-08-05T10:45:21.195Z,99663.97
2022-08-05T10:48:27.575Z,99671.72
2022-08-05T10:51:21.913Z,99670.72
2022-08-05T10:53:55.766Z,99670.38
2022-08-05T10:56:45.415Z,99677.78
2022-08-05T11:00:04.122Z,99668.66
2022-08-05T11:02:37.847Z,99672.25
2022-08-05T11:05:07.321Z,99658.50
2022-08-05T11:08:22.190Z,99663.41
2022-08-05T11:11:00.876Z,99659.25
2022-08-05T11:13:54.734Z,99659.81
2022-08-05T11:16:47.713Z,99670.72
2022-08-05T11:20:11.435Z,99681.13
2022-08-05T11:22:44.722Z,99686.25
2022-08-05T11:26:04.109Z,99692.31
2022-08-05T11:28:33.695Z,99690.06
2022-08-05T11:31:06.470Z,99683.63
2022-08-05T11:33:48.924Z,99683.78
2022-08-05T11:36:42.806Z,99687.84
2022-08-05T11:39:12.079Z,99687.38
2022-08-05T11:42:01.601Z,99687.63
2022-08-05T11:44:52.705Z,99687.88
2022-08-05T11:47:49.011Z,99699.19
2022-08-05T11:50:14.127Z,99689.97
2022-08-05T11:52:44.113Z,99687.19
2022-08-05T11:55:13.714Z,99692.28
2022-08-05T11:58:08.335Z,99692.03
2022-08-05T12:00:38.036Z,99688.56
2022-08-05T12:03:29.177Z,99686.97
2022-08-05T12:06:01.683Z,99696.19
2022-08-05T12:08:31.703Z,99696.19
2022-08-05T12:11:05.894Z,99700.34
2022-08-05T12:13:49.376Z,99710.72
2022-08-05T12:16:19.475Z,99718.78
2022-08-05T12:18:52.316Z,99709.81
2022-08-05T12:21:29.828Z,99706.78
2022-08-05T12:24:07.056Z,99710.25
2022-08-05T12:26:50.113Z,99708.31
2022-08-05T12:29:26.238Z,99707.63
2022-08-05T12:32:02.097Z,99711.44
2022-08-05T12:34:35.840Z,99705.53
2022-08-05T12:37:16.956Z,99716.03
2022-08-05T12:39:51.374Z,99705.53
2022-08-05T12:42:21.167Z,99707.94
2022-08-05T12:44:48.549Z,99712.09
2022-08-05T12:47:30.483Z,99715.88
2022-08-05T12:50:03.936Z,99713.13
2022-08-05T12:52:41.787Z,99719.00
2022-08-05T12:55:28.588Z,99726.63
2022-08-05T12:58:49.054Z,99732.81
2022-08-05T13:02:03.964Z,99723.84
2022-08-05T13:03:38.965Z,99727.28
2022-08-05T13:06:17.288Z,99731.78
2022-08-05T13:08:52.117Z,99738.09
2022-08-05T13:11:59.852Z,99739.47
2022-08-05T13:14:36.171Z,99743.69
2022-08-05T13:17:32.052Z,99750.00
2022-08-05T13:20:20.376Z,99742.56
2022-08-05T13:22:52.995Z,99742.53
2022-08-05T13:25:22.193Z,99747.38
2022-08-05T13:28:07.863Z,99749.81
2022-08-05T13:30:38.963Z,99749.66
2022-08-05T13:33:06.270Z,99752.16
2022-08-05T13:35:47.229Z,99753.03
2022-08-05T13:38:28.129Z,99751.97
2022-08-05T13:41:00.112Z,99749.84
2022-08-05T13:43:44.046Z,99759.47
2022-08-05T13:46:16.111Z,99749.66
2022-08-05T13:48:57.793Z,99746.59
2022-08-05T13:51:40.184Z,99745.63
2022-08-05T13:54:11.939Z,99745.16
2022-08-05T13:56:45.497Z,99730.53
2022-08-05T13:59:27.348Z,99730.06
2022-08-05T14:02:00.460Z,99727.31
2022-08-05T14:04:56.263Z,99717.91
2022-08-05T14:08:00.367Z,99726.53
2022-08-05T14:10:28.898Z,99714.16
2022-08-05T14:12:59.365Z,99718.19
2022-08-05T14:16:04.633Z,99712.56
2022-08-05T14:18:18.168Z,99703.28
2022-08-05T14:20:54.383Z,99704.09
2022-08-05T14:23:24.551Z,99706.34
2022-08-05T14:25:57.949Z,99707.63
2022-08-05T14:28:30.614Z,99691.84
2022-08-05T14:30:59.405Z,99688.63
2022-08-05T14:33:27.930Z,99693.00
2022-08-05T14:36:14.859Z,99695.69
2022-08-05T14:38:42.403Z,99703.31
2022-08-05T14:41:11.699Z,99699.16
2022-08-05T14:44:00.194Z,99701.44
2022-08-05T14:46:29.794Z,99699.84
2022-08-05T14:49:06.734Z,99695.31
2022-08-05T14:51:37.630Z,99698.59
2022-08-05T14:54:28.097Z,99689.06
2022-08-05T14:56:54.809Z,99684.88
2022-08-05T14:59:22.178Z,99693.84
2022-08-05T15:01:50.214Z,99687.88
2022-08-05T15:04:22.444Z,99695.22
2022-08-05T15:06:51.439Z,99694.78
2022-08-05T15:09:51.236Z,99696.03
2022-08-05T15:12:08.884Z,99698.34
2022-08-05T15:14:42.200Z,99698.53
2022-08-05T15:17:45.656Z,99700.50
2022-08-05T15:20:06.173Z,99707.19
2022-08-05T15:22:35.918Z,99705.25
2022-08-05T15:25:13.607Z,99712.09
2022-08-05T15:30:11.313Z,99718.75
2022-08-05T15:34:04.283Z,99719.41
2022-08-05T15:35:11.609Z,99730.44
2022-08-05T15:41:04.523Z,99719.09
2022-08-05T15:44:28.043Z,99740.78
2022-08-05T15:47:32.397Z,99737.22
2022-08-05T15:50:04.027Z,99732.50
2022-08-05T15:52:52.901Z,99737.34
2022-08-05T15:55:19.991Z,99740.09
2022-08-05T15:57:52.669Z,99744.13
2022-08-05T16:00:30.483Z,99750.44
2022-08-05T16:03:08.176Z,99753.47
2022-08-05T16:05:35.517Z,99755.88
2022-08-05T16:08:06.076Z,99761.50
2022-08-05T16:10:33.085Z,99772.03
2022-08-05T16:13:00.061Z,99777.16
2022-08-05T16:15:32.303Z,99780.13
2022-08-05T16:18:00.876Z,99777.78
2022-08-05T16:20:31.569Z,99784.09
2022-08-05T16:22:59.619Z,99788.75
2022-08-05T16:25:33.930Z,99793.88
2022-08-05T16:28:10.453Z,99791.16
2022-08-05T16:30:37.776Z,99795.16
2022-08-05T16:33:04.855Z,99792.09
2022-08-05T16:35:33.668Z,99802.06
2022-08-05T16:38:23.809Z,99805.94
2022-08-05T16:40:59.879Z,99810.13
2022-08-05T16:43:35.535Z,99819.03
2022-08-05T16:46:12.688Z,99826.19
2022-08-05T16:48:52.075Z,99824.88
2022-08-05T16:51:23.244Z,99820.00
2022-08-05T16:54:04.956Z,99831.31
2022-08-05T16:56:36.848Z,99826.53
2022-08-05T16:59:14.689Z,99824.59
2022-08-05T17:01:54.718Z,99832.84
2022-08-05T17:04:28.264Z,99837.19
2022-08-05T17:07:01.066Z,99839.75
2022-08-05T17:09:57.678Z,99834.84
2022-08-05T17:12:18.447Z,99837.28
2022-08-05T17:14:49.887Z,99842.19
2022-08-05T17:17:17.015Z,99844.81
2022-08-05T17:19:46.772Z,99840.69
2022-08-05T17:22:25.576Z,99843.13
2022-08-05T17:25:00.115Z,99837.41
2022-08-05T17:27:33.514Z,99851.13
2022-08-05T17:30:11.913Z,99847.59
2022-08-05T17:32:46.145Z,99861.69
2022-08-05T17:35:15.693Z,99857.66
2022-08-05T17:37:48.578Z,99861.06
2022-08-05T17:40:17.621Z,99871.44
2022-08-05T17:42:51.111Z,99868.50
2022-08-05T17:45:22.144Z,99866.03
2022-08-05T17:47:55.997Z,99870.09
2022-08-05T17:50:30.343Z,99880.38
2022-08-05T17:53:00.784Z,99880.19
2022-08-05T17:55:37.618Z,99880.03
2022-08-05T17:58:12.225Z,99894.47
2022-08-05T18:00:47.109Z,99907.38
2022-08-05T18:03:56.315Z,99900.63
2022-08-05T18:06:12.254Z,99918.22
2022-08-05T18:08:45.726Z,99913.81
2022-08-05T18:11:24.841Z,99915.50
2022-08-05T18:14:03.429Z,99924.91
2022-08-05T18:16:32.698Z,99928.56
2022-08-05T18:18:59.677Z,99940.38
2022-08-05T18:21:28.109Z,99928.47
2022-08-05T18:24:14.457Z,99939.97
2022-08-05T18:26:41.772Z,99940.59
2022-08-05T18:29:10.843Z,99945.25
2022-08-05T18:31:38.368Z,99942.91
2022-08-05T18:34:12.625Z,99942.31
2022-08-05T18:36:39.885Z,99935.84
2022-08-05T18:39:09.783Z,99942.66
2022-08-05T18:42:04.764Z,99949.47
2022-08-05T18:44:35.539Z,99963.47
2022-08-05T18:47:18.828Z,99964.06
2022-08-05T18:50:10.607Z,99975.78
2022-08-05T18:52:41.719Z,99972.03
2022-08-05T18:55:19.589Z,99981.88
2022-08-05T18:57:52.800Z,99989.53
2022-08-05T19:00:29.246Z,99988.69
2022-08-05T19:03:04.157Z,100012.97
2022-08-05T19:06:12.306Z,100014.66
2022-08-05T19:08:21.646Z,100029.94
2022-08-05T19:10:49.952Z,100028.28
2022-08-05T19:13:18.161Z,100037.56
2022-08-05T19:15:57.819Z,100036.47
2022-08-05T19:18:27.924Z,100031.59
2022-08-05T19:20:55.729Z,100047.91
2022-08-05T19:24:07.163Z,100048.50
2022-08-05T19:26:11.191Z,100052.31
2022-08-05T19:28:43.690Z,100063.22
2022-08-05T19:31:13.276Z,100057.75
2022-08-05T19:33:47.948Z,100058.84
2022-08-05T19:36:23.964Z,100051.22
2022-08-05T19:38:52.821Z,100040.31
2022-08-05T19:41:22.208Z,100053.66
2022-08-05T19:44:13.268Z,100067.81
2022-08-05T19:46:43.705Z,100093.47
2022-08-05T19:49:16.412Z,100090.47
2022-08-05T19:52:08.924Z,100089.38
2022-08-05T19:54:31.930Z,100081.19
2022-08-05T19:57:09.167Z,100086.63
2022-08-05T19:59:59.369Z,100087.50
2022-08-05T20:02:28.002Z,100107.91
2022-08-05T20:04:58.422Z,100110.66
2022-08-05T20:07:47.529Z,100114.47
2022-08-05T20:10:16.933Z,100122.13
2022-08-05T20:12:47.819Z,100117.19
2022-08-05T20:15:48.077Z,100132.47
2022-08-05T20:18:10.723Z,100143.91
2022-08-05T20:20:56.730Z,100144.47
2022-08-05T20:23:40.526Z,100134.91
2022-08-05T20:26:15.203Z,100142.81
2022-08-05T20:28:50.508Z,100142.53
2022-08-05T20:31:21.653Z,100148.25
2022-08-05T20:33:51.019Z,100149.63
2022-08-05T20:36:18.976Z,100144.69
2022-08-05T20:38:53.294Z,100152.34
2022-08-05T20:41:27.553Z,100161.31
2022-08-05T20:44:19.387Z,100163.47
2022-08-05T20:47:03.231Z,100165.13
2022-08-05T20:49:37.920Z,100174.91
2022-08-05T20:52:08.493Z,100185.25
2022-08-05T20:54:55.391Z,100189.59
2022-08-05T20:57:41.959Z,100202.09
2022-08-05T21:00:35.103Z,100205.91
2022-08-05T21:03:04.486Z,100211.63
2022-08-05T21:05:47.526Z,100214.09
2022-08-05T21:08:26.890Z,100203.69
2022-08-05T21:11:12.851Z,100198.78
2022-08-05T21:13:59.455Z,100192.75
2022-08-05T21:16:29.904Z,100195.47
2022-08-05T21:19:01.961Z,100205.25
2022-08-05T21:21:39.670Z,100201.41
2022-08-05T21:24:17.266Z,100205.75
2022-08-05T21:26:53.543Z,100218.25
2022-08-05T21:29:31.982Z,100206.25
2022-08-05T21:32:03.468Z,100207.59
2022-08-05T21:34:31.617Z,100202.13
2022-08-05T21:37:00.275Z,100216.53
2022-08-05T21:39:28.014Z,100210.78
2022-08-05T21:42:01.857Z,100210.50
2022-08-05T21:44:31.037Z,100213.19
2022-08-05T21:46:59.768Z,100221.31
2022-08-05T21:49:48.115Z,100213.69
2022-08-05T21:52:27.549Z,100216.91
2022-08-05T21:54:57.040Z,100221.25
2022-08-05T21:57:32.536Z,100228.31
2022-08-05T22:00:05.942Z,100238.06
2022-08-05T22:02:41.719Z,100239.75
2022-08-05T22:05:11.222Z,100230.50
2022-08-05T22:07:59.002Z,100237.03
2022-08-05T22:10:29.651Z,100237.34
2022-08-05T22:14:06.191Z,100242.81
2022-08-05T22:16:00.411Z,100240.91
2022-08-05T22:18:34.437Z,100252.50
2022-08-05T22:21:04.766Z,100253.31
2022-08-05T22:24:03.171Z,100255.13
2022-08-05T22:26:54.159Z,100257.25
2022-08-05T22:29:26.150Z,100265.41
2022-08-05T22:31:55.337Z,100263.44
2022-08-05T22:34:28.932Z,100269.09
2022-08-05T22:36:58.512Z,100278.81
2022-08-05T22:39:32.747Z,100278.28
2022-08-05T22:42:12.715Z,100283.72
2022-08-05T22:44:53.475Z,100286.97
2022-08-05T22:47:29.464Z,100288.81
2022-08-05T22:50:20.258Z,100298.28
2022-08-05T22:52:49.833Z,100296.06
2022-08-05T22:55:21.460Z,100295.19
2022-08-05T22:57:53.055Z,100300.28
2022-08-05T23:00:22.151Z,100304.06
2022-08-05T23:02:52.019Z,100304.25
2022-08-05T23:05:22.000Z,100298.56
2022-08-05T23:07:50.855Z,100303.41
2022-08-05T23:10:20.666Z,100307.22
2022-08-05T23:12:55.121Z,100308.53
2022-08-05T23:15:28.990Z,100319.41
2022-08-05T23:18:00.761Z,100312.84
2022-08-05T23:20:32.413Z,100320.44
2022-08-05T23:23:00.213Z,100320.91
2022-08-05T23:25:52.477Z,100320.09
2022-08-05T23:28:20.956Z,100322.47
2022-08-05T23:30:53.298Z,100339.03
2022-08-05T23:33:26.487Z,100347.75
2022-08-05T23:36:10.453Z,100341.50
2022-08-05T23:38:38.318Z,100348.00
2022-08-05T23:41:05.507Z,100348.28
2022-08-05T23:43:37.195Z,100359.63
2022-08-05T23:46:21.966Z,100352.81
2022-08-05T23:49:01.228Z,100357.16
2022-08-05T23:51:54.343Z,100356.00
2022-08-05T23:54:33.954Z,100370.66
2022-08-05T23:57:04.782Z,100373.25
